createdAt,value
2022-08-16T00:00:38.776Z,72624.05
2022-08-16T00:03:13.388Z,72624.05
2022-08-16T00:05:48.299Z,72626.84
2022-08-16T00:08:36.684Z,72637.63
2022-08-16T00:11:15.980Z,72632.83
2022-08-16T00:13:53.147Z,72630.02
2022-08-16T00:17:00.589Z,72628.83
2022-08-16T00:19:23.282Z,72632.02
2022-08-16T00:21:56.160Z,72631.23
2022-08-16T00:24:32.135Z,72632.02
2022-08-16T00:27:03.025Z,72628.42
2022-08-16T00:29:32.092Z,72629.63
2022-08-16T00:32:05.729Z,72628.43
2022-08-16T00:34:44.402Z,72626.44
2022-08-16T00:37:25.093Z,72624.05
2022-08-16T00:40:33.726Z,72622.84
2022-08-16T00:43:40.663Z,72620.05
2022-08-16T00:46:33.731Z,72614.84
2022-08-16T00:49:17.638Z,72610.05
2022-08-16T00:51:55.094Z,72609.64
2022-08-16T00:54:30.941Z,72608.85
2022-08-16T00:57:03.711Z,72606.06
2022-08-16T00:59:35.992Z,72605.66
2022-08-16T01:02:30.404Z,72605.66
2022-08-16T01:05:09.130Z,72603.66
2022-08-16T01:07:52.159Z,72605.66
2022-08-16T01:10:31.185Z,72605.27
2022-08-16T01:13:06.330Z,72604.05
2022-08-16T01:15:43.419Z,72607.25
2022-08-16T01:18:39.155Z,72606.45
2022-08-16T01:21:33.868Z,72610.45
2022-08-16T01:24:06.309Z,72614.84
2022-08-16T01:27:05.519Z,72619.64
2022-08-16T01:30:03.750Z,72616.84
2022-08-16T01:33:01.462Z,72620.84
2022-08-16T01:35:38.701Z,72620.84
2022-08-16T01:38:33.497Z,72620.84
2022-08-16T01:41:11.709Z,72617.64
2022-08-16T01:43:44.830Z,72614.45
2022-08-16T01:46:37.498Z,72616.05
2022-08-16T01:49:43.253Z,72624.45
2022-08-16T01:52:29.654Z,72630.02
2022-08-16T01:55:07.027Z,72632.42
2022-08-16T01:57:36.132Z,72631.23
2022-08-16T02:00:18.987Z,72628.83
2022-08-16T02:02:52.077Z,72622.05
2022-08-16T02:05:23.677Z,72618.45
2022-08-16T02:07:53.603Z,72620.84
2022-08-16T02:10:25.938Z,72617.64
2022-08-16T02:13:00.053Z,72616.84
2022-08-16T02:15:35.582Z,72622.84
2022-08-16T02:18:18.743Z,72627.64
2022-08-16T02:20:53.381Z,72634.02
2022-08-16T02:23:23.709Z,72643.22
2022-08-16T02:25:54.003Z,72652.81
2022-08-16T02:28:26.150Z,72660.02
2022-08-16T02:30:57.396Z,72666.80
2022-08-16T02:33:44.194Z,72670.80
2022-08-16T02:36:42.210Z,72676.78
2022-08-16T02:39:15.045Z,72680.38
2022-08-16T02:41:46.290Z,72683.58
2022-08-16T02:44:26.951Z,72685.18
2022-08-16T02:46:57.266Z,72691.18
2022-08-16T02:49:57.974Z,72690.78
2022-08-16T02:52:24.799Z,72682.78
2022-08-16T02:55:07.989Z,72674.79
2022-08-16T02:57:37.672Z,72677.98
2022-08-16T03:00:33.725Z,72679.18
2022-08-16T03:03:03.656Z,72679.58
2022-08-16T03:05:32.290Z,72681.58
2022-08-16T03:08:02.332Z,72683.18
2022-08-16T03:10:34.829Z,72686.38
2022-08-16T03:13:04.551Z,72688.78
2022-08-16T03:15:42.241Z,72696.36
2022-08-16T03:18:34.196Z,72699.56
2022-08-16T03:21:02.303Z,72704.77
2022-08-16T03:23:35.536Z,72705.96
2022-08-16T03:26:06.330Z,72705.16
2022-08-16T03:28:34.992Z,72703.56
2022-08-16T03:31:03.900Z,72703.56
2022-08-16T03:33:34.934Z,72703.16
2022-08-16T03:36:30.050Z,72700.77
2022-08-16T03:38:58.139Z,72699.16
2022-08-16T03:41:29.314Z,72703.96
2022-08-16T03:44:01.846Z,72705.96
2022-08-16T03:46:48.287Z,72706.77
2022-08-16T03:49:23.581Z,72713.55
2022-08-16T03:52:08.569Z,72713.55
2022-08-16T03:54:37.901Z,72714.76
2022-08-16T03:57:06.324Z,72725.15
2022-08-16T03:59:40.291Z,72740.34
2022-08-16T04:02:22.740Z,72748.73
2022-08-16T04:05:00.558Z,72751.52
2022-08-16T04:07:33.590Z,72751.92
2022-08-16T04:10:35.868Z,72750.72
2022-08-16T04:13:00.610Z,72744.34
2022-08-16T04:15:33.898Z,72734.73
2022-08-16T04:18:20.756Z,72719.15
2022-08-16T04:20:52.299Z,72708.36
2022-08-16T04:23:24.321Z,72698.37
2022-08-16T04:25:55.174Z,72687.58
2022-08-16T04:28:29.218Z,72676.78
2022-08-16T04:31:13.848Z,72665.60
2022-08-16T04:33:51.025Z,72655.21
2022-08-16T04:36:22.773Z,72643.61
2022-08-16T04:38:52.561Z,72631.23
2022-08-16T04:41:32.845Z,72616.45
2022-08-16T04:44:32.718Z,72600.06
2022-08-16T04:47:02.444Z,72583.67
2022-08-16T04:49:43.828Z,72572.88
2022-08-16T04:52:33.548Z,72560.10
2022-08-16T04:55:15.268Z,72549.70
2022-08-16T04:57:45.610Z,72537.33
2022-08-16T05:00:33.894Z,72518.94
2022-08-16T05:03:22.519Z,72508.55
2022-08-16T05:05:59.154Z,72495.76
2022-08-16T05:08:35.776Z,72478.98
2022-08-16T05:11:14.314Z,72465.39
2022-08-16T05:13:45.181Z,72451.00
2022-08-16T05:16:29.943Z,72436.62
2022-08-16T05:19:11.791Z,72421.83
2022-08-16T05:22:07.123Z,72404.65
2022-08-16T05:24:55.970Z,72387.46
2022-08-16T05:27:24.254Z,72375.48
2022-08-16T05:30:00.677Z,72363.48
2022-08-16T05:32:36.423Z,72355.09
2022-08-16T05:35:17.142Z,72348.30
2022-08-16T05:38:00.680Z,72347.89
2022-08-16T05:40:30.169Z,72345.51
2022-08-16T05:42:59.276Z,72351.49
2022-08-16T05:45:33.796Z,72357.89
2022-08-16T05:48:05.560Z,72374.27
2022-08-16T05:50:53.324Z,72378.27
2022-08-16T05:53:24.344Z,72371.48
2022-08-16T05:56:19.447Z,72372.67
2022-08-16T05:58:50.481Z,72364.29
2022-08-16T06:01:20.341Z,72357.49
2022-08-16T06:03:52.582Z,72351.49
2022-08-16T06:06:56.903Z,72347.50
2022-08-16T06:09:42.923Z,72337.52
2022-08-16T06:12:27.111Z,72323.52
2022-08-16T06:15:10.094Z,72315.14
2022-08-16T06:17:44.168Z,72304.34
2022-08-16T06:20:35.649Z,72295.55
2022-08-16T06:23:17.235Z,72281.17
2022-08-16T06:25:58.855Z,72271.58
2022-08-16T06:28:36.196Z,72257.59
2022-08-16T06:31:12.483Z,72239.61
2022-08-16T06:33:44.667Z,72222.42
2022-08-16T06:36:16.627Z,72207.25
2022-08-16T06:38:56.965Z,72189.67
2022-08-16T06:41:47.394Z,72166.48
2022-08-16T06:44:30.526Z,72146.52
2022-08-16T06:47:02.851Z,72130.91
2022-08-16T06:49:32.186Z,72120.53
2022-08-16T06:52:03.422Z,72104.15
2022-08-16T06:54:38.686Z,72080.58
2022-08-16T06:57:11.807Z,72057.41
2022-08-16T06:59:52.343Z,72037.83
2022-08-16T07:02:33.332Z,71999.46
2022-08-16T07:05:15.550Z,71981.89
2022-08-16T07:07:58.396Z,71994.66
2022-08-16T07:10:28.443Z,71985.08
2022-08-16T07:13:03.592Z,71982.28
2022-08-16T07:15:50.438Z,72014.25
2022-08-16T07:18:24.459Z,72041.02
2022-08-16T07:20:53.578Z,72075.39
2022-08-16T07:23:36.937Z,72112.14
2022-08-16T07:26:25.309Z,72138.92
2022-08-16T07:28:57.656Z,72158.50
2022-08-16T07:31:38.052Z,72156.90
2022-08-16T07:34:10.793Z,72155.30
2022-08-16T07:36:39.416Z,72157.70
2022-08-16T07:39:08.822Z,72156.90
2022-08-16T07:41:40.343Z,72148.91
2022-08-16T07:44:15.374Z,72130.11
2022-08-16T07:46:55.625Z,72111.74
2022-08-16T07:49:25.736Z,72082.98
2022-08-16T07:52:18.646Z,72048.61
2022-08-16T07:54:53.431Z,72013.05
2022-08-16T07:57:24.107Z,71983.48
2022-08-16T07:59:57.110Z,71946.33
2022-08-16T08:02:27.463Z,71868.80
2022-08-16T08:04:58.818Z,71768.11
2022-08-16T08:07:32.458Z,71703.79
2022-08-16T08:10:05.827Z,71687.41
2022-08-16T08:12:40.718Z,71682.22
2022-08-16T08:15:14.548Z,71678.63
2022-08-16T08:17:54.915Z,71678.63
2022-08-16T08:20:31.042Z,71654.65
2022-08-16T08:23:03.152Z,71645.45
2022-08-16T08:25:54.350Z,71650.66
2022-08-16T08:28:31.751Z,71618.30
2022-08-16T08:31:04.389Z,71583.92
2022-08-16T08:33:38.321Z,71547.98
2022-08-16T08:36:21.924Z,71454.89
2022-08-16T08:38:55.467Z,71330.24
2022-08-16T08:41:28.747Z,71244.35
2022-08-16T08:44:00.153Z,71236.36
2022-08-16T08:46:28.674Z,71323.05
2022-08-16T08:49:07.744Z,71501.63
2022-08-16T08:51:43.563Z,71619.09
2022-08-16T08:54:18.787Z,71749.34
2022-08-16T08:56:56.091Z,71867.20
2022-08-16T08:59:40.771Z,71934.73
2022-08-16T09:02:19.533Z,71991.48
2022-08-16T09:04:54.429Z,72040.22
2022-08-16T09:07:28.322Z,72076.58
2022-08-16T09:10:06.332Z,72106.95
2022-08-16T09:12:40.203Z,72132.13
2022-08-16T09:15:16.904Z,72131.72
2022-08-16T09:17:54.680Z,72120.53
2022-08-16T09:20:29.151Z,72089.77
2022-08-16T09:23:02.101Z,72035.42
2022-08-16T09:25:36.991Z,71973.89
2022-08-16T09:28:10.343Z,71915.16
2022-08-16T09:30:46.493Z,71849.63
2022-08-16T09:33:18.455Z,71837.64
2022-08-16T09:35:53.843Z,71865.20
2022-08-16T09:38:32.141Z,71889.98
2022-08-16T09:41:14.773Z,71891.58
2022-08-16T09:43:58.381Z,71896.77
2022-08-16T09:46:44.663Z,71901.17
2022-08-16T09:49:19.735Z,71856.02
2022-08-16T09:51:55.585Z,71790.09
2022-08-16T09:54:32.510Z,71757.73
2022-08-16T09:57:03.738Z,71766.13
2022-08-16T09:59:38.759Z,71805.27
2022-08-16T10:02:26.525Z,71860.81
2022-08-16T10:04:58.807Z,71911.16
2022-08-16T10:07:44.682Z,71950.71
2022-08-16T10:10:18.885Z,71972.70
2022-08-16T10:13:12.283Z,71949.92
2022-08-16T10:15:53.387Z,71914.36
2022-08-16T10:19:00.610Z,71894.78
2022-08-16T10:21:16.901Z,71893.18
2022-08-16T10:23:48.312Z,71933.14
2022-08-16T10:27:18.899Z,71963.90
2022-08-16T10:29:06.251Z,72005.85
2022-08-16T10:31:44.317Z,72034.63
2022-08-16T10:34:31.843Z,72061.80
2022-08-16T10:37:02.080Z,72101.35
2022-08-16T10:39:40.647Z,72146.11
2022-08-16T10:42:13.312Z,72180.08
2022-08-16T10:44:42.691Z,72175.67
2022-08-16T10:47:22.459Z,72142.11
2022-08-16T10:49:50.843Z,72107.35
2022-08-16T10:52:20.044Z,72086.97
2022-08-16T10:57:38.084Z,72065.39
2022-08-16T11:00:21.311Z,72068.59
2022-08-16T11:02:57.694Z,72070.98
2022-08-16T11:08:31.301Z,72092.56
2022-08-16T11:11:11.817Z,72081.77
2022-08-16T11:14:11.004Z,72083.77
2022-08-16T11:19:28.253Z,72065.39
2022-08-16T11:22:39.473Z,72080.18
2022-08-16T11:25:11.887Z,72084.58
2022-08-16T11:27:39.367Z,72079.38
2022-08-16T11:30:12.305Z,72065.39
2022-08-16T11:32:49.604Z,72045.02
2022-08-16T11:35:43.466Z,71995.07
2022-08-16T11:38:23.466Z,71929.14
2022-08-16T11:41:06.898Z,71844.83
2022-08-16T11:43:39.228Z,71782.10
2022-08-16T11:46:43.327Z,71730.56
2022-08-16T11:49:08.691Z,71679.82
2022-08-16T11:51:43.789Z,71638.66
2022-08-16T11:54:21.421Z,71618.29
2022-08-16T11:56:57.039Z,71612.70
2022-08-16T11:59:29.203Z,71591.92
2022-08-16T12:01:59.711Z,71579.54
2022-08-16T12:04:34.794Z,71544.78
2022-08-16T12:07:05.402Z,71525.60
2022-08-16T12:09:34.799Z,71494.44
2022-08-16T12:12:10.254Z,71483.26
2022-08-16T12:14:40.660Z,71479.66
2022-08-16T12:17:10.372Z,71465.27
2022-08-16T12:19:39.612Z,71445.70
2022-08-16T12:22:18.691Z,71425.33
2022-08-16T12:24:51.972Z,71398.56
2022-08-16T12:27:25.977Z,71376.59
2022-08-16T12:29:58.504Z,71351.02
2022-08-16T12:32:39.147Z,71319.05
2022-08-16T12:35:26.168Z,71292.29
2022-08-16T12:37:59.809Z,71297.08
2022-08-16T12:40:32.494Z,71281.91
2022-08-16T12:43:04.632Z,71274.31
2022-08-16T12:45:40.216Z,71268.31
2022-08-16T12:48:35.006Z,71261.13
2022-08-16T12:51:13.575Z,71259.53
2022-08-16T12:53:54.241Z,71251.14
2022-08-16T12:56:26.788Z,71239.55
2022-08-16T12:58:56.963Z,71211.59
2022-08-16T13:01:30.921Z,71198.80
2022-08-16T13:04:12.264Z,71215.18
2022-08-16T13:06:52.306Z,71211.98
2022-08-16T13:09:28.664Z,71239.95
2022-08-16T13:12:04.254Z,71264.32
2022-08-16T13:14:41.216Z,71341.42
2022-08-16T13:17:18.803Z,71317.05
2022-08-16T13:20:09.259Z,71266.32
2022-08-16T13:22:42.815Z,71208.00
2022-08-16T13:25:19.479Z,71205.60
2022-08-16T13:28:02.180Z,71185.23
2022-08-16T13:30:41.949Z,71161.25
2022-08-16T13:33:19.036Z,71162.05
2022-08-16T13:35:58.395Z,71143.68
2022-08-16T13:38:36.948Z,71126.50
2022-08-16T13:41:12.422Z,71124.11
2022-08-16T13:43:42.421Z,71124.50
2022-08-16T13:46:10.887Z,71120.91
2022-08-16T13:48:44.154Z,71127.70
2022-08-16T13:51:18.492Z,71119.31
2022-08-16T13:53:59.524Z,71129.70
2022-08-16T13:56:37.692Z,71153.66
2022-08-16T13:59:14.311Z,71153.67
2022-08-16T14:01:55.740Z,71154.86
2022-08-16T14:04:29.051Z,71146.88
2022-08-16T14:06:58.946Z,71100.14
2022-08-16T14:09:30.233Z,71067.38
2022-08-16T14:12:00.390Z,71097.73
2022-08-16T14:14:30.199Z,71112.11
2022-08-16T14:17:02.267Z,71120.52
2022-08-16T14:19:31.190Z,71124.91
2022-08-16T14:22:14.654Z,71114.12
2022-08-16T14:24:54.663Z,71095.73
2022-08-16T14:27:28.339Z,71094.54
2022-08-16T14:29:58.142Z,71078.96
2022-08-16T14:32:34.091Z,71075.36
2022-08-16T14:35:07.643Z,71075.36
2022-08-16T14:37:38.110Z,71075.77
2022-08-16T14:40:09.303Z,71108.92
2022-08-16T14:42:38.817Z,71120.90
2022-08-16T14:45:08.917Z,71116.91
2022-08-16T14:47:38.399Z,71106.92
2022-08-16T14:50:09.489Z,71118.52
2022-08-16T14:52:56.197Z,71124.50
2022-08-16T14:55:28.871Z,71114.11
2022-08-16T14:57:58.508Z,71145.27
2022-08-16T15:00:32.991Z,71183.63
2022-08-16T15:03:09.531Z,71203.20
2022-08-16T15:05:41.351Z,71197.61
2022-08-16T15:08:11.031Z,71172.84
2022-08-16T15:10:45.716Z,71177.23
2022-08-16T15:13:15.537Z,71185.62
2022-08-16T15:15:45.192Z,71202.41
2022-08-16T15:18:27.957Z,71200.00
2022-08-16T15:21:02.308Z,71229.98
2022-08-16T15:23:33.591Z,71241.55
2022-08-16T15:26:08.280Z,71255.14
2022-08-16T15:28:38.324Z,71278.30
2022-08-16T15:31:09.580Z,71269.91
2022-08-16T15:33:58.017Z,71273.52
2022-08-16T15:36:28.147Z,71280.70
2022-08-16T15:39:06.859Z,71279.50
2022-08-16T15:41:56.024Z,71299.88
2022-08-16T15:44:51.920Z,71327.84
2022-08-16T15:47:27.709Z,71306.27
2022-08-16T15:49:58.934Z,71294.29
2022-08-16T15:52:36.962Z,71278.70
2022-08-16T15:55:12.944Z,71282.70
2022-08-16T15:57:53.273Z,71295.89
2022-08-16T16:00:22.452Z,71303.88
2022-08-16T16:03:04.722Z,71313.46
2022-08-16T16:05:40.123Z,71339.83
2022-08-16T16:08:11.275Z,71354.21
2022-08-16T16:10:43.828Z,71358.20
2022-08-16T16:13:24.525Z,71355.41
2022-08-16T16:15:56.001Z,71353.42
2022-08-16T16:18:26.131Z,71370.98
2022-08-16T16:20:57.381Z,71380.98
2022-08-16T16:23:30.731Z,71389.37
2022-08-16T16:26:00.311Z,71403.35
2022-08-16T16:29:05.199Z,71411.73
2022-08-16T16:31:26.347Z,71424.13
2022-08-16T16:33:58.120Z,71440.11
2022-08-16T16:36:29.782Z,71440.11
2022-08-16T16:38:58.712Z,71447.30
2022-08-16T16:41:30.557Z,71458.08
2022-08-16T16:44:01.384Z,71467.67
2022-08-16T16:46:42.487Z,71485.25
2022-08-16T16:49:14.605Z,71499.23
2022-08-16T16:51:44.629Z,71517.61
2022-08-16T16:54:27.642Z,71532.79
2022-08-16T16:56:58.524Z,71542.78
2022-08-16T16:59:28.084Z,71557.16
2022-08-16T17:02:46.115Z,71571.55
2022-08-16T17:04:48.670Z,71579.94
2022-08-16T17:07:20.593Z,71592.72
2022-08-16T17:09:54.220Z,71607.11
2022-08-16T17:12:24.535Z,71619.89
2022-08-16T17:14:55.535Z,71643.46
2022-08-16T17:17:23.859Z,71651.05
2022-08-16T17:19:52.120Z,71663.44
2022-08-16T17:22:23.634Z,71675.83
2022-08-16T17:25:02.373Z,71691.02
2022-08-16T17:27:37.333Z,71703.80
2022-08-16T17:30:14.942Z,71713.78
2022-08-16T17:32:50.665Z,71731.36
2022-08-16T17:35:34.033Z,71755.73
2022-08-16T17:38:07.009Z,71780.91
2022-08-16T17:40:50.220Z,71802.09
2022-08-16T17:43:37.390Z,71807.27
2022-08-16T17:46:50.750Z,71828.05
2022-08-16T17:49:05.497Z,71848.83
2022-08-16T17:51:34.302Z,71869.20
2022-08-16T17:54:03.327Z,71877.99
2022-08-16T17:56:32.268Z,71887.98
2022-08-16T17:59:02.042Z,71903.16
2022-08-16T18:01:30.847Z,71917.56
2022-08-16T18:04:08.159Z,71931.94
2022-08-16T18:06:40.009Z,71942.73
2022-08-16T18:09:09.197Z,71947.11
2022-08-16T18:11:40.962Z,71953.52
2022-08-16T18:14:12.976Z,71963.50
2022-08-16T18:16:43.208Z,71973.90
2022-08-16T18:19:12.432Z,71983.88
2022-08-16T18:21:59.731Z,71993.07
2022-08-16T18:24:29.261Z,72003.86
2022-08-16T18:26:57.140Z,72016.64
2022-08-16T18:29:47.688Z,72026.23
2022-08-16T18:32:22.060Z,72035.82
2022-08-16T18:34:55.045Z,72061.00
2022-08-16T18:37:24.671Z,72109.75
2022-08-16T18:39:52.676Z,72150.50
2022-08-16T18:42:21.226Z,72172.88
2022-08-16T18:44:49.492Z,72205.25
2022-08-16T18:47:18.270Z,72230.42
2022-08-16T18:49:46.668Z,72256.39
2022-08-16T18:52:25.613Z,72271.98
2022-08-16T18:55:02.247Z,72281.17
2022-08-16T18:57:43.667Z,72301.55
2022-08-16T19:00:14.505Z,72319.13
2022-08-16T19:02:58.162Z,72338.71
2022-08-16T19:05:31.037Z,72355.09
2022-08-16T19:08:00.874Z,72370.27
2022-08-16T19:10:32.981Z,72382.27
2022-08-16T19:13:07.281Z,72394.27
2022-08-16T19:15:36.982Z,72400.65
2022-08-16T19:18:06.547Z,72411.84
2022-08-16T19:20:36.743Z,72421.83
2022-08-16T19:23:10.181Z,72445.80
2022-08-16T19:25:49.565Z,72454.60
2022-08-16T19:28:57.808Z,72460.20
2022-08-16T19:31:21.210Z,72462.60
2022-08-16T19:33:54.951Z,72472.98
2022-08-16T19:36:31.893Z,72483.37
2022-08-16T19:39:08.768Z,72488.97
2022-08-16T19:41:40.779Z,72492.57
2022-08-16T19:44:09.554Z,72496.16
2022-08-16T19:46:38.552Z,72496.96
2022-08-16T19:49:07.570Z,72514.14
2022-08-16T19:51:36.122Z,72530.52
2022-08-16T19:54:06.753Z,72559.70
2022-08-16T19:56:35.582Z,72600.05
2022-08-16T19:59:20.959Z,72617.24
2022-08-16T20:01:53.052Z,72612.45
2022-08-16T20:04:23.414Z,72604.86
2022-08-16T20:06:53.565Z,72600.86
2022-08-16T20:09:23.216Z,72596.06
2022-08-16T20:11:54.342Z,72615.23
2022-08-16T20:14:25.338Z,72636.02
2022-08-16T20:16:57.213Z,72658.81
2022-08-16T20:19:27.288Z,72670.39
2022-08-16T20:22:00.019Z,72690.38
2022-08-16T20:24:35.141Z,72700.36
2022-08-16T20:27:09.466Z,72720.75
2022-08-16T20:29:40.478Z,72740.33
2022-08-16T20:32:12.253Z,72754.72
2022-08-16T20:34:41.811Z,72775.90
2022-08-16T20:37:16.062Z,72795.89
2022-08-16T20:39:47.004Z,72813.07
2022-08-16T20:42:19.507Z,72823.45
2022-08-16T20:44:51.791Z,72837.45
2022-08-16T20:47:24.730Z,72851.84
2022-08-16T20:49:54.716Z,72865.83
2022-08-16T20:52:25.143Z,72875.81
2022-08-16T20:54:54.966Z,72888.20
2022-08-16T20:57:23.564Z,72894.20
2022-08-16T20:59:51.970Z,72891.80
2022-08-16T21:02:26.773Z,72907.80
2022-08-16T21:04:55.671Z,72914.58
2022-08-16T21:07:24.052Z,72914.17
2022-08-16T21:09:52.937Z,72947.35
2022-08-16T21:12:21.613Z,72956.95
2022-08-16T21:14:51.030Z,72949.75
2022-08-16T21:17:20.064Z,72960.94
2022-08-16T21:19:48.302Z,72963.73
2022-08-16T21:22:23.660Z,72962.14
2022-08-16T21:24:54.012Z,72957.35
2022-08-16T21:27:24.336Z,72955.35
2022-08-16T21:29:54.734Z,72949.35
2022-08-16T21:32:35.696Z,72944.95
2022-08-16T21:35:10.712Z,72944.15
2022-08-16T21:37:39.875Z,72943.36
2022-08-16T21:40:09.750Z,72941.77
2022-08-16T21:42:41.012Z,72945.35
2022-08-16T21:45:14.581Z,72949.35
2022-08-16T21:47:43.592Z,72953.35
2022-08-16T21:50:13.648Z,72952.15
2022-08-16T21:52:41.884Z,72960.95
2022-08-16T21:55:10.752Z,72955.75
2022-08-16T21:57:39.534Z,72965.73
2022-08-16T22:00:14.483Z,72969.73
2022-08-16T22:02:45.616Z,72969.33
2022-08-16T22:05:17.194Z,72972.93
2022-08-16T22:07:45.543Z,72976.53
2022-08-16T22:11:06.708Z,72978.52
2022-08-16T22:13:03.993Z,72985.71
2022-08-16T22:15:32.400Z,72992.52
2022-08-16T22:18:01.192Z,73000.52
2022-08-16T22:20:29.992Z,73007.70
2022-08-16T22:23:10.391Z,73015.70
2022-08-16T22:25:41.771Z,73024.89
2022-08-16T22:28:11.870Z,73031.69
2022-08-16T22:30:41.351Z,73039.28
2022-08-16T22:33:13.611Z,73053.27
2022-08-16T22:35:49.993Z,73059.27
2022-08-16T22:38:56.298Z,73053.67
2022-08-16T22:41:09.446Z,73061.65
2022-08-16T22:43:38.315Z,73079.24
2022-08-16T22:46:07.451Z,73096.04
2022-08-16T22:48:41.217Z,73105.63
2022-08-16T22:51:11.747Z,73117.21
2022-08-16T22:53:39.919Z,73120.80
2022-08-16T22:56:08.918Z,73128.41
2022-08-16T22:58:37.411Z,73131.61
2022-08-16T23:01:08.245Z,73134.40
2022-08-16T23:03:37.721Z,73137.60
2022-08-16T23:06:07.694Z,73143.98
2022-08-16T23:08:40.606Z,73157.58
2022-08-16T23:11:12.476Z,73167.17
2022-08-16T23:13:53.177Z,73177.56
2022-08-16T23:16:33.220Z,73186.36
2022-08-16T23:19:07.127Z,73197.95
2022-08-16T23:21:38.182Z,73202.74
2022-08-16T23:24:08.351Z,73203.14
2022-08-16T23:26:45.833Z,73206.34
2022-08-16T23:29:24.832Z,73204.74
2022-08-16T23:31:58.359Z,73207.95
2022-08-16T23:34:28.194Z,73206.34
2022-08-16T23:36:57.592Z,73205.95
2022-08-16T23:39:26.508Z,73207.55
2022-08-16T23:41:55.666Z,73213.55
2022-08-16T23:44:55.504Z,73219.52
2022-08-16T23:47:12.405Z,73220.33
2022-08-16T23:49:57.444Z,73226.33
2022-08-16T23:52:53.549Z,73228.73
2022-08-16T23:55:17.647Z,73228.73
2022-08-16T23:57:47.090Z,73230.33
